Time;durP1;ratioP1;P1;durP2;ratioP2;P2;SDS_P1;SDS_P2;PMS_P1;PMS_P2;Temp;Humidity;BMP_temperature;BMP_pressure;BME280_temperature;BME280_humidity;BME280_pressure;Samples;Min_cycle;Max_cycle;Signal;HPM_P1;HPM_P2
2021/07/24 00:00:44;;;;;;;15.68;11.73;;;;;;;18.93;65.72;98690.34;1987386;79;27660;-79
2021/07/24 00:03:46;;;;;;;14.32;10.68;;;;;;;18.79;66.43;98683.13;1983822;81;20191;-78
2021/07/24 00:06:49;;;;;;;16.92;10.61;;;;;;;18.70;67.69;98663.41;1983191;81;20505;-79
2021/07/24 00:09:51;;;;;;;15.63;10.07;;;;;;;18.55;68.42;98652.75;1983654;81;20792;-78
2021/07/24 00:12:54;;;;;;;17.31;10.25;;;;;;;18.44;68.59;98642.72;1983610;81;20216;-79
2021/07/24 00:15:57;;;;;;;15.16;9.23;;;;;;;18.39;69.57;98636.84;1984645;78;21640;-79
2021/07/24 00:18:59;;;;;;;13.68;8.80;;;;;;;18.29;69.97;98618.03;1984497;81;20164;-79
2021/07/24 00:22:02;;;;;;;9.27;8.14;;;;;;;18.22;69.45;98610.53;1987980;81;20195;-79
2021/07/24 00:25:04;;;;;;;13.29;8.86;;;;;;;18.14;70.01;98604.78;1988626;81;20217;-79
2021/07/24 00:28:08;;;;;;;13.10;8.25;;;;;;;18.01;70.88;98602.75;1987856;81;20282;-78
2021/07/24 00:31:10;;;;;;;11.89;8.29;;;;;;;17.83;71.68;98595.72;1984885;78;21798;-79
2021/07/24 00:34:17;;;;;;;10.07;8.69;;;;;;;17.80;72.55;98586.22;1984026;81;20198;-79
2021/07/24 00:37:20;;;;;;;9.94;8.81;;;;;;;17.80;71.95;98594.09;1982893;81;20233;-78
2021/07/24 00:40:25;;;;;;;15.11;9.77;;;;;;;17.77;71.06;98591.63;1984109;81;20243;-79
2021/07/24 00:43:30;;;;;;;13.20;8.99;;;;;;;17.84;70.88;98581.66;1982799;82;20168;-79
2021/07/24 00:46:35;;;;;;;13.44;9.54;;;;;;;17.91;71.25;98574.34;1984370;81;23270;-78
2021/07/24 00:49:38;;;;;;;10.23;8.43;;;;;;;17.93;71.25;98565.47;1987675;81;20164;-78
2021/07/24 00:52:42;;;;;;;12.01;8.63;;;;;;;18.04;70.11;98564.97;1987067;81;20808;-78
2021/07/24 00:55:45;;;;;;;11.04;8.61;;;;;;;18.12;69.96;98557.53;1988973;81;20391;-78
2021/07/24 00:58:47;;;;;;;11.70;8.18;;;;;;;18.24;67.38;98550.84;1988527;81;20223;-78
2021/07/24 01:01:51;;;;;;;11.06;8.38;;;;;;;18.36;66.66;98552.91;1983781;79;21668;-78
2021/07/24 01:04:54;;;;;;;10.54;8.50;;;;;;;18.41;67.79;98562.25;1983498;81;20801;-78
2021/07/24 01:07:57;;;;;;;9.43;8.29;;;;;;;18.46;67.91;98564.63;1983896;81;20197;-78
2021/07/24 01:11:00;;;;;;;10.23;8.65;;;;;;;18.49;68.11;98564.50;1983485;81;20173;-78
2021/07/24 01:14:03;;;;;;;9.93;8.40;;;;;;;18.55;67.36;98561.56;1984333;81;20197;-77
2021/07/24 01:17:05;;;;;;;12.15;9.30;;;;;;;18.64;65.42;98561.13;1985808;79;20315;-77
2021/07/24 01:20:10;;;;;;;11.96;8.55;;;;;;;18.67;66.40;98557.47;1988952;81;20168;-77
2021/07/24 01:23:14;;;;;;;11.36;8.60;;;;;;;18.70;67.23;98557.34;1988500;81;20167;-78
2021/07/24 01:26:31;;;;;;;9.06;8.16;;;;;;;18.70;68.06;98550.31;1989092;81;20754;-78
2021/07/24 01:29:34;;;;;;;10.07;8.20;;;;;;;18.70;68.67;98552.09;1988817;81;20191;-78
2021/07/24 01:32:37;;;;;;;12.56;8.51;;;;;;;18.62;68.30;98536.66;1984524;78;22353;-78
2021/07/24 01:35:47;;;;;;;11.63;7.70;;;;;;;18.60;68.07;98514.84;1984053;81;20192;-78
2021/07/24 01:38:50;;;;;;;8.02;7.22;;;;;;;18.65;66.44;98512.84;1982937;81;20202;-78
2021/07/24 01:41:55;;;;;;;9.94;7.59;;;;;;;18.75;65.10;98530.81;1983488;82;20249;-78
2021/07/24 01:44:58;;;;;;;8.51;7.26;;;;;;;18.83;64.31;98536.50;1983177;82;20220;-78
2021/07/24 01:48:02;;;;;;;9.66;7.64;;;;;;;18.94;63.20;98563.13;1988182;78;20308;-78
2021/07/24 01:54:33;;;;;;;8.16;7.36;;;;;;;19.16;62.61;98547.06;1988846;81;20191;-78
2021/07/24 01:57:41;;;;;;;7.94;7.10;;;;;;;19.18;62.56;98529.41;1988606;81;20318;-77
2021/07/24 02:00:44;;;;;;;9.52;7.78;;;;;;;19.25;61.68;98528.16;1986899;79;20347;-79
2021/07/24 02:03:55;;;;;;;11.23;7.95;;;;;;;19.33;61.19;98545.22;1984689;82;20214;-78
2021/07/24 02:06:58;;;;;;;9.52;7.81;;;;;;;19.41;60.84;98565.06;1985619;82;20285;-78
2021/07/24 02:10:01;;;;;;;13.81;7.56;;;;;;;19.42;61.47;98545.69;1984813;82;20192;-78
2021/07/24 02:13:04;;;;;;;10.06;7.61;;;;;;;19.41;61.25;98528.19;1985504;82;20172;-78
2021/07/24 02:16:07;;;;;;;10.02;7.36;;;;;;;19.44;60.62;98525.41;1986377;78;21439;-79
2021/07/24 02:19:10;;;;;;;11.82;7.10;;;;;;;19.46;60.41;98513.84;1990200;81;20172;-78
2021/07/24 02:22:12;;;;;;;9.19;7.53;;;;;;;19.52;60.09;98526.66;1990411;81;20195;-79
2021/07/24 02:25:15;;;;;;;12.11;7.68;;;;;;;19.58;60.04;98573.78;1991453;81;20176;-78
2021/07/24 02:28:18;;;;;;;10.30;7.44;;;;;;;19.64;60.09;98625.28;1990486;81;20183;-78
2021/07/24 02:31:21;;;;;;;8.25;7.45;;;;;;;19.65;60.01;98647.19;1985885;79;23848;-78
2021/07/24 02:34:23;;;;;;;10.89;7.59;;;;;;;19.63;60.70;98649.91;1985389;82;20654;-78
2021/07/24 02:37:26;;;;;;;9.25;7.35;;;;;;;19.61;62.99;98628.91;1985413;82;20648;-78
2021/07/24 02:40:29;;;;;;;8.59;7.55;;;;;;;19.54;62.72;98640.69;1984369;82;20625;-78
2021/07/24 02:43:31;;;;;;;10.89;7.53;;;;;;;19.49;62.82;98631.31;1985757;82;20224;-78
2021/07/24 02:46:34;;;;;;;10.46;7.69;;;;;;;19.46;63.83;98621.78;1986091;79;22909;-78
2021/07/24 02:49:37;;;;;;;10.02;7.14;;;;;;;19.43;63.56;98631.66;1990164;81;20796;-79
2021/07/24 02:52:40;;;;;;;8.06;7.14;;;;;;;19.38;63.51;98634.50;1990498;81;20192;-78
2021/07/24 02:55:42;;;;;;;12.39;7.69;;;;;;;19.27;64.00;98629.81;1989546;81;20164;-78
2021/07/24 02:58:45;;;;;;;9.21;7.51;;;;;;;19.22;64.94;98626.56;1989872;81;20265;-78
2021/07/24 03:01:48;;;;;;;8.77;7.24;;;;;;;19.20;65.50;98632.81;1986775;81;21679;-78
2021/07/24 03:04:50;;;;;;;9.07;7.45;;;;;;;19.15;66.91;98638.31;1988257;81;20250;-78
2021/07/24 03:07:53;;;;;;;8.36;7.61;;;;;;;19.08;67.29;98639.59;1983969;82;20640;-78
2021/07/24 03:10:55;;;;;;;9.13;7.51;;;;;;;19.04;67.88;98626.66;1983101;81;20687;-78
2021/07/24 03:13:58;;;;;;;8.89;7.95;;;;;;;19.00;68.38;98644.38;1984630;81;20659;-78
2021/07/24 03:17:01;;;;;;;8.75;7.82;;;;;;;18.90;68.12;98640.50;1988662;79;24347;-77
2021/07/24 03:20:05;;;;;;;9.86;7.95;;;;;;;18.86;67.91;98626.66;1988949;81;20246;-78
2021/07/24 03:23:07;;;;;;;13.23;8.32;;;;;;;18.89;68.47;98636.19;1989282;81;20210;-77
2021/07/24 03:26:10;;;;;;;11.52;7.55;;;;;;;18.89;68.93;98629.13;1989718;81;20199;-78
2021/07/24 03:29:13;;;;;;;9.27;7.85;;;;;;;18.85;69.77;98640.75;1989446;81;20155;-78
2021/07/24 03:32:15;;;;;;;10.26;8.24;;;;;;;18.79;69.23;98613.88;1987866;78;22900;-78
2021/07/24 03:35:18;;;;;;;11.35;8.41;;;;;;;18.80;70.42;98619.06;1988786;81;20693;-78
2021/07/24 03:38:21;;;;;;;9.65;7.86;;;;;;;18.73;70.79;98604.53;1989037;81;20200;-78
2021/07/24 03:41:23;;;;;;;9.49;7.72;;;;;;;18.74;71.11;98613.28;1988957;81;20201;-78
2021/07/24 03:44:26;;;;;;;8.63;7.66;;;;;;;18.64;69.96;98623.38;1989613;81;20184;-78
2021/07/24 03:47:31;;;;;;;8.38;7.57;;;;;;;18.62;70.27;98627.84;1980362;79;20803;-78
2021/07/24 03:50:33;;;;;;;9.14;7.71;;;;;;;18.57;70.75;98648.25;1984495;81;20200;-78
2021/07/24 03:53:36;;;;;;;8.68;7.71;;;;;;;18.52;70.91;98652.91;1985243;81;20788;-78
2021/07/24 03:56:39;;;;;;;9.93;8.57;;;;;;;18.57;70.61;98650.88;1983125;81;20208;-78
2021/07/24 03:59:41;;;;;;;9.21;8.09;;;;;;;18.55;70.67;98650.09;1983226;81;20176;-78
2021/07/24 04:02:44;;;;;;;11.45;8.04;;;;;;;18.58;69.68;98639.44;1989759;79;31306;-78
2021/07/24 04:05:47;;;;;;;8.45;7.64;;;;;;;18.55;70.89;98650.97;1987858;81;20199;-78
2021/07/24 04:08:50;;;;;;;12.31;7.79;;;;;;;18.47;71.74;98645.19;1989256;81;21069;-79
2021/07/24 04:11:53;;;;;;;11.80;7.99;;;;;;;18.44;72.26;98645.34;1988326;81;20273;-78
2021/07/24 04:14:57;;;;;;;9.84;8.81;;;;;;;18.45;72.73;98635.69;1991102;81;20255;-78
2021/07/24 04:18:00;;;;;;;9.18;8.25;;;;;;;18.45;71.56;98631.28;1982098;78;20602;-78
2021/07/24 04:21:03;;;;;;;9.00;8.09;;;;;;;18.49;71.65;98634.59;1984436;81;20194;-78
2021/07/24 04:24:05;;;;;;;8.75;7.88;;;;;;;18.47;71.34;98618.06;1984057;81;20743;-78
2021/07/24 04:27:08;;;;;;;8.70;7.90;;;;;;;18.50;71.54;98634.56;1984297;81;20286;-78
2021/07/24 04:30:11;;;;;;;8.96;8.16;;;;;;;18.55;71.42;98634.34;1983250;81;20681;-78
2021/07/24 04:33:13;;;;;;;12.18;8.31;;;;;;;18.56;71.86;98639.50;1985983;79;22242;-78
2021/07/24 04:36:16;;;;;;;8.70;7.80;;;;;;;18.55;71.67;98642.22;1983772;81;20217;-78
2021/07/24 04:39:18;;;;;;;10.75;8.01;;;;;;;18.55;71.40;98635.19;1984022;81;20834;-78
2021/07/24 04:42:21;;;;;;;10.10;8.29;;;;;;;18.54;70.87;98637.88;1982201;81;20217;-78
2021/07/24 04:45:24;;;;;;;8.46;7.64;;;;;;;18.46;71.58;98622.47;1983054;79;22909;-77
2021/07/24 04:48:26;;;;;;;8.69;7.72;;;;;;;18.47;72.30;98621.53;1988610;81;20285;-78
2021/07/24 04:51:29;;;;;;;12.69;7.86;;;;;;;18.43;72.25;98633.13;1988121;81;20227;-78
2021/07/24 04:54:32;;;;;;;13.31;7.36;;;;;;;18.37;72.86;98625.56;1988829;81;20191;-78
2021/07/24 04:57:35;;;;;;;10.26;8.44;;;;;;;18.37;73.09;98636.06;1987978;81;20593;-78
2021/07/24 05:00:38;;;;;;;11.88;7.96;;;;;;;18.35;73.48;98633.53;1987100;78;21443;-78
2021/07/24 05:03:40;;;;;;;8.64;7.79;;;;;;;18.36;73.84;98640.47;1982718;81;20223;-78
2021/07/24 05:06:43;;;;;;;9.13;8.24;;;;;;;18.31;73.46;98634.59;1983572;81;20206;-78
2021/07/24 05:09:46;;;;;;;10.70;8.21;;;;;;;18.31;73.36;98636.34;1983104;82;20588;-78
2021/07/24 05:12:48;;;;;;;12.02;8.36;;;;;;;18.27;73.64;98646.16;1984208;81;20196;-78
2021/07/24 05:15:52;;;;;;;9.50;7.70;;;;;;;18.24;73.39;98635.81;1984169;79;23038;-78
2021/07/24 05:18:56;;;;;;;8.65;7.86;;;;;;;18.25;73.23;98639.28;1988448;81;21054;-78
2021/07/24 05:21:58;;;;;;;8.90;8.04;;;;;;;18.27;74.32;98646.16;1989826;81;20253;-78
2021/07/24 05:25:01;;;;;;;10.05;8.56;;;;;;;18.27;73.27;98648.78;1989002;81;20203;-78
2021/07/24 05:28:04;;;;;;;8.68;7.89;;;;;;;18.30;72.72;98643.38;1988015;81;20282;-78
2021/07/24 05:31:14;;;;;;;8.84;7.71;;;;;;;18.39;72.14;98652.63;1986940;79;21606;-78
2021/07/24 05:34:17;;;;;;;8.75;7.86;;;;;;;18.40;73.32;98651.69;1983300;82;20184;-78
2021/07/24 05:37:20;;;;;;;8.93;8.02;;;;;;;18.40;73.17;98655.19;1983240;81;20860;-78
2021/07/24 05:40:23;;;;;;;9.10;8.20;;;;;;;18.39;73.79;98664.00;1983059;82;20198;-78
2021/07/24 05:43:26;;;;;;;12.14;8.02;;;;;;;18.39;74.08;98661.34;1983772;81;20184;-78
2021/07/24 05:46:29;;;;;;;15.36;8.56;;;;;;;18.33;74.18;98648.53;1985530;78;24531;-74
2021/07/24 05:49:32;;;;;;;12.89;8.20;;;;;;;18.38;74.18;98646.50;1986683;81;20221;-73
2021/07/24 05:52:34;;;;;;;10.21;7.68;;;;;;;18.43;75.21;98656.81;1987233;81;20234;-75
2021/07/24 05:55:38;;;;;;;8.31;7.40;;;;;;;18.43;76.46;98672.56;1986882;81;20183;-75
2021/07/24 05:58:41;;;;;;;9.84;7.66;;;;;;;18.45;77.44;98672.50;1986222;81;20212;-74
2021/07/24 06:01:43;;;;;;;12.95;7.97;;;;;;;18.47;78.24;98668.88;1985496;78;20244;-75
2021/07/24 06:04:47;;;;;;;9.29;7.53;;;;;;;18.53;79.22;98696.66;1987532;81;20234;-74
2021/07/24 06:07:50;;;;;;;10.94;7.64;;;;;;;18.60;80.00;98705.94;1986498;81;20246;-75
2021/07/24 06:10:52;;;;;;;10.23;7.38;;;;;;;18.63;79.58;98698.78;1987098;81;20655;-75
2021/07/24 06:13:55;;;;;;;7.55;6.85;;;;;;;18.74;79.73;98715.84;1986487;81;20722;-75
2021/07/24 06:16:58;;;;;;;9.14;6.49;;;;;;;18.83;80.37;98704.84;1982459;79;20605;-75
2021/07/24 06:20:01;;;;;;;8.04;6.15;;;;;;;18.93;80.58;98708.75;1981650;82;20209;-75
2021/07/24 06:23:04;;;;;;;7.88;6.70;;;;;;;19.08;80.28;98720.31;1981460;82;20216;-75
2021/07/24 06:26:07;;;;;;;13.00;7.59;;;;;;;19.19;80.42;98710.94;1981313;82;20176;-75
2021/07/24 06:29:09;;;;;;;10.54;6.65;;;;;;;19.26;80.85;98704.44;1982528;82;20176;-75
2021/07/24 06:32:12;;;;;;;9.93;6.49;;;;;;;19.33;81.07;98679.50;1984800;78;20526;-76
2021/07/24 06:35:14;;;;;;;8.77;6.13;;;;;;;19.40;81.37;98679.19;1987755;81;20241;-77
2021/07/24 06:38:17;;;;;;;7.18;6.07;;;;;;;19.47;81.79;98672.69;1987087;81;20195;-76
2021/07/24 06:41:20;;;;;;;10.04;6.24;;;;;;;19.54;82.27;98669.66;1986590;81;20313;-75
2021/07/24 06:44:23;;;;;;;6.41;5.81;;;;;;;19.63;82.74;98654.31;1985925;81;20270;-75
2021/07/24 06:47:25;;;;;;;8.93;6.63;;;;;;;19.71;82.83;98642.44;1982419;78;20486;-75
2021/07/24 06:50:29;;;;;;;8.52;5.34;;;;;;;19.78;82.88;98653.50;1982587;81;20200;-75
2021/07/24 06:53:33;;;;;;;7.69;5.43;;;;;;;19.88;82.51;98649.44;1978784;81;20204;-75
2021/07/24 06:56:36;;;;;;;9.50;5.84;;;;;;;20.01;82.49;98654.91;1982414;81;20721;-75
2021/07/24 06:59:38;;;;;;;8.16;5.97;;;;;;;20.09;83.20;98639.50;1981983;81;20169;-75
2021/07/24 07:02:41;;;;;;;6.82;5.96;;;;;;;20.15;83.33;98624.22;1985532;79;21878;-75
2021/07/24 07:05:43;;;;;;;6.66;6.03;;;;;;;20.18;82.91;98634.59;1983793;81;20410;-75
2021/07/24 07:08:46;;;;;;;9.60;5.91;;;;;;;20.23;82.20;98640.44;1987293;81;20191;-75
2021/07/24 07:11:49;;;;;;;7.94;5.78;;;;;;;20.32;82.51;98638.25;1986556;81;20722;-74
2021/07/24 07:14:51;;;;;;;6.75;5.81;;;;;;;20.42;82.49;98632.38;1987604;81;20180;-75
2021/07/24 07:17:55;;;;;;;9.30;5.56;;;;;;;20.59;81.99;98641.13;1983435;78;23638;-74
2021/07/24 07:20:58;;;;;;;6.25;5.65;;;;;;;20.85;81.71;98640.50;1981962;81;21194;-76
2021/07/24 07:24:00;;;;;;;7.01;5.46;;;;;;;21.01;81.33;98641.28;1983874;81;20631;-75
2021/07/24 07:27:03;;;;;;;7.61;5.71;;;;;;;21.11;81.06;98645.06;1982332;81;20921;-75
2021/07/24 07:30:06;;;;;;;9.01;5.24;;;;;;;21.11;80.82;98637.16;1983351;81;20995;-76
2021/07/24 07:33:09;;;;;;;6.31;5.00;;;;;;;21.05;80.37;98626.97;1987373;78;21140;-76
2021/07/24 07:36:11;;;;;;;6.44;5.91;;;;;;;21.05;80.22;98623.47;1987303;81;20198;-76
2021/07/24 07:39:14;;;;;;;5.96;5.25;;;;;;;21.04;81.14;98622.63;1988242;81;20180;-76
2021/07/24 07:42:17;;;;;;;7.51;5.38;;;;;;;21.00;81.09;98628.16;1988214;81;20167;-78
2021/07/24 07:45:20;;;;;;;9.30;6.19;;;;;;;20.97;81.08;98637.09;1988749;81;20344;-76
2021/07/24 07:48:24;;;;;;;8.65;5.61;;;;;;;20.95;81.71;98641.63;1988494;81;20639;-77
2021/07/24 07:51:29;;;;;;;7.10;5.26;;;;;;;20.84;81.37;98632.66;1988698;81;20228;-77
2021/07/24 07:54:33;;;;;;;9.98;5.56;;;;;;;20.67;81.10;98636.28;1989176;81;20305;-77
2021/07/24 07:57:39;;;;;;;7.35;5.36;;;;;;;20.52;82.00;98636.22;1987043;81;20254;-76
2021/07/24 08:00:42;;;;;;;5.51;4.79;;;;;;;20.50;82.38;98643.38;1987363;81;20663;-76
2021/07/24 08:03:44;;;;;;;8.79;5.06;;;;;;;20.53;82.36;98644.97;1987505;81;20650;-76
2021/07/24 08:06:47;;;;;;;5.13;4.53;;;;;;;20.51;82.37;98642.41;1987845;81;20241;-77
2021/07/24 08:09:49;;;;;;;9.19;4.74;;;;;;;20.46;82.32;98644.44;1988257;81;20223;-76
2021/07/24 08:12:53;;;;;;;5.96;4.25;;;;;;;20.45;81.94;98641.91;1997102;81;20273;-80
2021/07/24 08:15:56;;;;;;;7.75;4.25;;;;;;;20.44;81.83;98642.84;1987165;78;20194;-76
2021/07/24 08:18:58;;;;;;;6.82;3.85;;;;;;;20.30;81.45;98637.47;1987153;81;20184;-76
2021/07/24 08:22:01;;;;;;;5.79;3.70;;;;;;;20.25;81.48;98635.06;1986474;81;20200;-75
2021/07/24 08:25:05;;;;;;;5.21;4.00;;;;;;;20.17;81.17;98627.59;1987272;81;20199;-75
2021/07/24 08:28:08;;;;;;;5.66;3.59;;;;;;;20.13;81.32;98628.72;1986632;81;20171;-75
2021/07/24 08:31:15;;;;;;;8.07;3.61;;;;;;;20.11;81.74;98627.13;1986220;79;30189;-75
2021/07/24 08:34:18;;;;;;;7.32;3.58;;;;;;;20.01;81.95;98634.66;1987385;81;20804;-76
2021/07/24 08:37:20;;;;;;;6.93;4.13;;;;;;;19.93;82.38;98623.69;1986951;81;20233;-75
2021/07/24 08:40:23;;;;;;;8.82;4.54;;;;;;;19.91;83.12;98631.66;1987238;81;21057;-75
2021/07/24 08:43:26;;;;;;;6.45;3.92;;;;;;;19.90;83.61;98621.22;1986605;81;20168;-75
2021/07/24 08:46:28;;;;;;;6.18;3.81;;;;;;;19.92;83.88;98624.59;1983559;78;21637;-75
2021/07/24 08:49:31;;;;;;;6.45;4.28;;;;;;;19.98;84.26;98624.28;1981571;81;20681;-75
2021/07/24 08:52:35;;;;;;;4.29;3.46;;;;;;;20.11;84.59;98620.06;1978217;81;20310;-75
2021/07/24 08:55:40;;;;;;;6.94;3.84;;;;;;;20.25;84.58;98628.97;1982612;81;20220;-76
2021/07/24 08:58:45;;;;;;;4.59;4.10;;;;;;;20.42;84.21;98631.53;1982026;81;20295;-76
2021/07/24 09:01:53;;;;;;;6.26;3.96;;;;;;;20.44;83.18;98630.50;1983885;78;24332;-76
2021/07/24 09:05:03;;;;;;;5.06;3.78;;;;;;;20.61;83.43;98637.47;1986964;81;20667;-76
2021/07/24 09:08:10;;;;;;;4.50;4.10;;;;;;;20.74;82.91;98632.34;1985955;81;20213;-74
2021/07/24 09:11:12;;;;;;;4.84;4.34;;;;;;;20.87;82.76;98621.91;1985585;81;20164;-74
2021/07/24 09:14:15;;;;;;;4.94;3.64;;;;;;;20.98;81.63;98617.69;1985836;81;20188;-75
2021/07/24 09:17:19;;;;;;;10.81;3.74;;;;;;;21.07;80.99;98625.06;1985047;78;21192;-74
2021/07/24 09:20:26;;;;;;;6.60;3.64;;;;;;;21.07;80.51;98642.72;1986611;81;20278;-74
2021/07/24 09:23:33;;;;;;;6.55;3.89;;;;;;;20.98;80.09;98646.72;1985866;81;20245;-75
2021/07/24 09:26:36;;;;;;;5.40;3.90;;;;;;;20.91;80.50;98657.75;1986575;81;20223;-75
2021/07/24 09:29:39;;;;;;;9.31;4.05;;;;;;;20.81;81.01;98645.06;1986131;81;20233;-75
2021/07/24 09:32:45;;;;;;;6.29;4.18;;;;;;;20.76;81.20;98646.28;1981361;81;23722;-77
2021/07/24 09:35:54;;;;;;;6.03;3.83;;;;;;;20.72;81.11;98652.69;1983161;81;20204;-77
2021/07/24 09:39:18;;;;;;;7.69;4.49;;;;;;;20.69;81.73;98652.88;1983273;81;20185;-77
2021/07/24 09:42:20;;;;;;;9.00;3.96;;;;;;;20.66;82.47;98659.16;1978957;81;20538;-77
2021/07/24 09:45:25;;;;;;;6.01;4.51;;;;;;;20.64;82.42;98668.94;1981308;81;20302;-77
2021/07/24 09:48:30;;;;;;;7.45;4.63;;;;;;;20.59;82.61;98694.72;1986554;81;20196;-77
2021/07/24 09:51:45;;;;;;;6.66;4.53;;;;;;;20.55;82.97;98700.28;1987394;81;20190;-77
2021/07/24 09:54:48;;;;;;;6.35;4.44;;;;;;;20.48;83.03;98702.41;1986800;81;20800;-77
2021/07/24 09:57:54;;;;;;;5.45;4.19;;;;;;;20.48;83.21;98705.06;1987820;81;20172;-77
2021/07/24 10:01:11;;;;;;;6.64;4.56;;;;;;;20.54;83.21;98704.69;1984286;78;40845;-77
2021/07/24 10:04:22;;;;;;;9.73;4.01;;;;;;;20.75;83.14;98714.03;1982313;82;20180;-77
2021/07/24 10:07:27;;;;;;;6.00;3.90;;;;;;;21.04;82.77;98724.72;1982994;82;20206;-78
2021/07/24 10:10:34;;;;;;;7.61;4.53;;;;;;;21.24;81.69;98728.84;1982733;82;20249;-78
2021/07/24 10:13:39;;;;;;;6.26;3.63;;;;;;;21.34;81.13;98736.16;1982684;82;20340;-77
2021/07/24 10:16:42;;;;;;;4.63;3.70;;;;;;;21.40;81.06;98741.09;1986140;78;57227;-78
2021/07/24 10:19:46;;;;;;;6.26;4.16;;;;;;;21.47;80.38;98738.94;1987407;81;20363;-77
2021/07/24 10:22:48;;;;;;;6.11;4.06;;;;;;;21.46;79.44;98745.16;1989545;81;20175;-77
2021/07/24 10:26:09;;;;;;;3.84;3.46;;;;;;;21.46;79.55;98739.03;1988899;81;20777;-78
2021/07/24 10:29:17;;;;;;;5.51;4.34;;;;;;;21.48;79.82;98755.63;1989264;81;20277;-78
2021/07/24 10:32:27;;;;;;;;;;;;;;;21.50;80.19;98753.75;1986459;79;22863;-78
2021/07/24 10:35:40;;;;;;;5.11;3.89;;;;;;;21.59;80.75;98761.16;1989691;81;20124;-78
2021/07/24 10:39:02;;;;;;;7.70;3.80;;;;;;;21.69;80.00;98752.56;1988800;81;20229;-78
2021/07/24 10:42:11;;;;;;;4.40;3.65;;;;;;;21.86;79.72;98748.06;1988451;81;20184;-78
2021/07/24 10:45:37;;;;;;;;;;;;;;;22.09;79.55;98741.41;1989070;81;20326;-78
2021/07/24 10:48:44;;;;;;;6.75;3.92;;;;;;;22.29;79.13;98741.03;1981093;81;20053;-77
2021/07/24 10:51:59;;;;;;;5.03;3.33;;;;;;;22.51;77.64;98738.72;1983840;81;20202;-78
2021/07/24 10:55:11;;;;;;;8.51;3.72;;;;;;;22.74;76.32;98726.66;1984734;81;20240;-78
2021/07/24 10:58:16;;;;;;;5.20;3.31;;;;;;;23.01;75.82;98734.63;1987955;82;20751;-80
2021/07/24 11:01:46;;;;;;;6.28;4.03;;;;;;;23.25;73.68;98726.00;1984724;79;22761;-79
2021/07/24 11:04:51;;;;;;;5.29;3.94;;;;;;;23.36;72.89;98731.44;1986403;81;20270;-78
2021/07/24 11:07:57;;;;;;;3.94;3.63;;;;;;;23.34;72.94;98723.59;1984572;82;20202;-79
2021/07/24 11:11:09;;;;;;;5.00;3.58;;;;;;;23.44;73.17;98708.75;1985083;82;20263;-79
2021/07/24 11:14:45;;;;;;;5.91;3.99;;;;;;;23.62;71.86;98706.69;1984914;81;20845;-77
2021/07/24 11:18:20;;;;;;;5.53;3.78;;;;;;;23.76;70.21;98711.06;1979009;79;22878;-78
2021/07/24 11:22:01;;;;;;;9.20;3.67;;;;;;;23.72;70.07;98712.22;1986912;81;20691;-79
2021/07/24 11:25:03;;;;;;;7.45;3.92;;;;;;;23.73;69.57;98703.31;1984473;82;20291;-78
2021/07/24 11:28:06;;;;;;;3.61;3.21;;;;;;;23.78;70.03;98699.38;1983855;81;20192;-77
2021/07/24 11:31:10;;;;;;;5.71;4.46;;;;;;;23.98;70.63;98699.78;1983670;79;22383;-79
2021/07/24 11:34:14;;;;;;;6.32;3.55;;;;;;;24.10;70.62;98697.13;1987618;81;20252;-79
2021/07/24 11:37:35;;;;;;;7.11;3.70;;;;;;;24.17;69.89;98704.66;1989814;81;20203;-79
2021/07/24 11:40:38;;;;;;;4.68;3.79;;;;;;;24.15;69.20;98703.91;1989805;81;20168;-79
2021/07/24 11:43:41;;;;;;;6.19;3.95;;;;;;;24.09;69.20;98698.09;1990970;81;20231;-81
2021/07/24 11:47:09;;;;;;;6.64;3.60;;;;;;;24.23;69.18;98690.94;1990657;78;21041;-81
2021/07/24 11:50:19;;;;;;;7.38;3.16;;;;;;;24.34;68.36;98691.06;1991795;81;20188;-80
2021/07/24 11:53:22;;;;;;;6.11;3.38;;;;;;;24.40;68.04;98685.28;1992760;81;20220;-80
2021/07/24 11:56:25;;;;;;;6.35;3.39;;;;;;;24.47;68.42;98683.06;1993339;81;20184;-81
2021/07/24 11:59:29;;;;;;;6.03;3.50;;;;;;;24.55;67.85;98649.69;1995497;81;20168;-81
2021/07/24 12:02:31;;;;;;;8.94;3.59;;;;;;;24.66;66.99;98639.13;1998335;78;24507;-82
2021/07/24 12:05:34;;;;;;;3.42;3.09;;;;;;;24.76;65.23;98618.03;2001150;81;20271;-83
2021/07/24 12:08:40;;;;;;;5.28;2.97;;;;;;;24.93;65.78;98609.63;2003226;81;20649;-82
2021/07/24 12:11:55;;;;;;;4.82;2.94;;;;;;;25.15;65.24;98621.34;1999376;81;20171;-81
2021/07/24 12:14:58;;;;;;;4.26;3.16;;;;;;;25.44;64.52;98619.94;1992328;81;20199;-79
2021/07/24 12:18:15;;;;;;;5.74;2.86;;;;;;;25.68;63.70;98617.22;1988250;81;21269;-79
2021/07/24 12:21:30;;;;;;;4.78;3.11;;;;;;;26.23;64.01;98635.94;1987581;81;20654;-79
2021/07/24 12:24:32;;;;;;;4.28;2.79;;;;;;;27.00;62.53;98631.38;1987457;81;20224;-80
2021/07/24 12:27:47;;;;;;;4.06;2.72;;;;;;;27.45;59.53;98641.75;1986258;81;20172;-81
2021/07/24 12:30:49;;;;;;;5.74;3.03;;;;;;;27.77;58.19;98645.19;1986473;81;20187;-80
2021/07/24 12:33:55;;;;;;;2.97;2.63;;;;;;;28.18;56.10;98644.22;1986992;81;20273;-80
2021/07/24 12:37:01;;;;;;;5.81;2.75;;;;;;;28.51;54.89;98650.22;1987437;81;20704;-80
2021/07/24 12:41:05;;;;;;;4.72;2.71;;;;;;;28.89;54.03;98657.47;2069072;77;20182;-79
2021/07/24 12:44:09;;;;;;;3.47;2.78;;;;;;;28.76;51.35;98665.75;2061311;78;20737;-87
2021/07/24 12:47:13;;;;;;;5.29;2.88;;;;;;;28.37;51.61;98661.28;2048859;76;21297;-86
2021/07/24 12:50:17;;;;;;;5.35;2.88;;;;;;;28.02;52.64;98664.41;2042855;79;20181;-86
2021/07/24 12:53:19;;;;;;;4.20;2.78;;;;;;;27.67;53.90;98661.16;2044039;79;20198;-86
2021/07/24 12:56:22;;;;;;;3.44;2.47;;;;;;;27.47;54.96;98654.00;2043471;79;20181;-83
2021/07/24 12:59:24;;;;;;;3.76;2.46;;;;;;;27.44;53.36;98651.56;2043442;79;20212;-84
2021/07/24 13:02:28;;;;;;;3.29;2.58;;;;;;;27.59;53.21;98657.41;2046529;79;25920;-85
2021/07/24 13:05:30;;;;;;;3.53;2.30;;;;;;;27.77;52.96;98639.84;2047594;79;20217;-86
2021/07/24 13:08:34;;;;;;;3.04;2.01;;;;;;;27.96;52.30;98636.41;2048105;79;20237;-86
2021/07/24 13:11:37;;;;;;;4.54;2.36;;;;;;;28.26;52.13;98636.41;2047564;79;20802;-86
2021/07/24 13:14:40;;;;;;;3.78;2.36;;;;;;;28.37;50.75;98639.94;2043737;79;20841;-86
2021/07/24 13:17:43;;;;;;;4.40;2.19;;;;;;;28.11;49.84;98651.09;2042903;77;21297;-86
2021/07/24 13:20:45;;;;;;;4.76;2.20;;;;;;;27.71;50.28;98644.88;2042538;79;20618;-86
2021/07/24 13:23:54;;;;;;;3.61;2.25;;;;;;;27.61;51.94;98656.31;2042876;79;20264;-84
2021/07/24 13:30:20;;;;;;;4.59;2.39;;;;;;;27.94;51.63;98657.91;2043461;79;20190;-86
2021/07/24 13:33:22;;;;;;;2.44;2.26;;;;;;;28.24;51.39;98661.53;2046339;79;20244;-86
2021/07/24 13:36:27;;;;;;;3.61;2.17;;;;;;;28.40;51.78;98659.22;2047420;79;20195;-85
2021/07/24 13:39:30;;;;;;;2.21;2.10;;;;;;;28.34;50.42;98651.72;2047719;79;21061;-86
2021/07/24 13:42:33;;;;;;;4.51;2.41;;;;;;;28.16;51.91;98650.66;2047489;79;20618;-86
2021/07/24 13:45:36;;;;;;;3.59;2.17;;;;;;;28.01;51.64;98650.22;2047053;77;21734;-84
2021/07/24 13:48:39;;;;;;;3.63;2.03;;;;;;;27.83;52.51;98647.34;2048094;79;20189;-85
2021/07/24 13:51:44;;;;;;;3.78;2.29;;;;;;;27.65;52.44;98644.44;2048601;79;20168;-85
2021/07/24 13:54:46;;;;;;;3.29;2.08;;;;;;;27.40;51.08;98660.81;2049159;79;20169;-84
2021/07/24 13:57:49;;;;;;;2.26;2.06;;;;;;;27.11;53.20;98652.63;2052654;79;20165;-83
2021/07/24 14:00:53;;;;;;;4.46;2.61;;;;;;;26.77;53.16;98655.41;2056302;76;22715;-83
2021/07/24 14:03:56;;;;;;;6.45;2.51;;;;;;;26.41;54.92;98648.63;2275982;68;21475;-85
2021/07/24 14:07:08;;;;;;;2.84;2.59;;;;;;;26.15;57.19;98652.50;2045812;79;20237;-84
2021/07/24 14:10:11;;;;;;;4.50;2.55;;;;;;;26.01;57.63;98650.94;2043146;79;20233;-81
2021/07/24 14:26:34;;;;;;;2.50;2.26;;;;;;;25.60;60.60;98630.22;2187648;69;20211;-86
2021/07/24 14:39:37;;;;;;;4.68;2.96;;;;;;;25.09;62.99;98625.31;2249165;69;20684;-85
2021/07/24 14:42:40;;;;;;;4.85;2.50;;;;;;;24.99;61.12;98638.44;2090086;68;20155;-80
2021/07/24 14:45:43;;;;;;;4.22;2.69;;;;;;;24.90;61.99;98652.38;2024583;80;110330;-82
2021/07/24 14:48:46;;;;;;;3.51;2.53;;;;;;;24.74;63.59;98643.00;2026132;80;20197;-82
2021/07/24 14:51:49;;;;;;;3.64;2.30;;;;;;;24.61;64.02;98633.31;2027565;80;20196;-82
2021/07/24 14:54:51;;;;;;;6.30;2.72;;;;;;;24.53;64.37;98621.56;2024511;80;20205;-82
2021/07/24 14:57:54;;;;;;;2.96;2.30;;;;;;;24.44;65.22;98622.25;2026400;80;20202;-82